MSC Fortunate — 3FLG6 — position and weather

sailwx.info

Track history (hours):
 
Tides and Currents Weather Stations Pressure Air Temp Water Temp Dewpoint Dewpoint Depression Visibility Wind Speed Wind Dir Waves Ship Positions

MSC Fortunate

Last reported at 2015-Aug-29 20:30 UTC. Time now 2015-Aug-29 21:04 UTC.
Position N 32°49' E 035°01'.

Length 275 m; draft 12.4 m.

Type: Ship. MMSI: 356708000.

Date/timePositionNaut miles runAvg speedWind from/ knotsBaromVisibWave heightAir tempDewpointWater temp
2015-Aug-29 20:30N 32°49' E 035°01'0 0.0
2015-Aug-29 19:30N 32°49' E 035°01'0 0.5
2015-Aug-29 18:32N 32°49' E 035°01'7 3.6
2015-Aug-29 16:33N 32°53' E 034°54'8 7.5
2015-Aug-29 15:31N 32°54' E 034°45'1814.1
2015-Aug-29 14:14N 32°58' E 034°24'1114.8
2015-Aug-29 13:28N 33°00' E 034°10'1414.8
2015-Aug-29 12:32N 33°03' E 033°54'1414.4
2015-Aug-29 11:34N 33°06' E 033°38'1414.3
2015-Aug-29 10:34N 33°09' E 033°21'1714.2
2015-Aug-29 09:22N 33°12' E 033°01'1214.0
2015-Aug-29 08:33N 33°14' E 032°48'1414.0
2015-Aug-29 07:34N 33°17' E 032°32'1414.0
2015-Aug-29 06:34N 33°20' E 032°15'1714.3
2015-Aug-29 05:24N 33°23' E 031°56'1214.0
2015-Aug-29 04:32N 33°25' E 031°41'1414.3
2015-Aug-29 03:33N 33°28' E 031°25'1414.1
2015-Aug-29 02:33N 33°31' E 031°08'2814.1
2015-Aug-29 00:34N 33°36' E 030°35'1614.3
2015-Aug-28 23:28N 33°39' E 030°17'2914.2
2015-Aug-28 21:27N 33°45' E 029°43'1314.3
2015-Aug-28 20:34N 33°47' E 029°28'1614.3
2015-Aug-28 19:24N 33°50' E 029°09'1214.3
2015-Aug-28 18:33N 33°53' E 028°54'1514.7
2015-Aug-28 17:31N 33°55' E 028°36'1515.2
2015-Aug-28 16:32N 33°59' E 028°18'60714.4
2015-Aug-26 22:15N 36°09' E 016°14'1114.1
2015-Aug-26 21:30N 36°12' E 016°01'4714.0
2015-Aug-26 18:06N 36°23' E 015°04'914.0
2015-Aug-26 17:26N 36°24' E 014°52'1214.1
2015-Aug-26 16:33N 36°26' E 014°37'1414.1
2015-Aug-26 15:33N 36°30' E 014°20'1414.1
2015-Aug-26 14:33N 36°34' E 014°03'1414.3
2015-Aug-26 13:33N 36°37' E 013°46'1414.4
2015-Aug-26 12:34N 36°40' E 013°28'1514.7
2015-Aug-26 11:33N 36°44' E 013°11'1514.8
2015-Aug-26 10:33N 36°47' E 012°52'1515.3
2015-Aug-26 09:33N 36°51' E 012°34'1515.0
2015-Aug-26 08:33N 36°54' E 012°16'1511.3
2015-Aug-26 07:15N 37°00' E 011°59'2613.7
2015-Aug-26 05:19N 37°13' E 011°30'8414.5
2015-Aug-25 23:33N 37°31' E 009°47'1515.2
2015-Aug-25 22:33N 37°28' E 009°28'32714.7
2015-Aug-25 00:18N 36°55' E 002°39'1114.9
2015-Aug-24 23:33N 36°53' E 002°26'8014.9
2015-Aug-24 18:08N 36°36' E 000°48'915.3
2015-Aug-24 17:32N 36°34' E 000°36'50013.9
2015-Aug-23 05:33N 37°31' W 009°45'1513.8
2015-Aug-23 04:29N 37°45' W 009°49'1413.8
2015-Aug-23 03:28N 37°59' W 009°53'1314.2
2015-Aug-23 02:32N 38°12' W 009°57'1414.6
2015-Aug-23 01:33N 38°26' W 010°01'1514.9
2015-Aug-23 00:33N 38°40' W 010°05'1514.8
2015-Aug-22 23:33N 38°55' W 010°06'1515.1
2015-Aug-22 22:33N 39°10' W 010°06'1514.8
2015-Aug-22 21:33N 39°25' W 010°06'  
2015-Aug-20 13:29N 49°44' W 000°54'1314.4
2015-Aug-20 12:34N 49°39' W 000°35'1414.2
2015-Aug-20 11:34N 49°33' W 000°14'1312.6
2015-Aug-20 10:33N 49°29' E 000°04'3 3.1
2015-Aug-20 09:33N 49°28' E 000°08'0 0.0
2015-Aug-20 08:30N 49°28' E 000°08'0 0.0
2015-Aug-20 07:33N 49°28' E 000°08'0 0.0
2015-Aug-20 06:33N 49°28' E 000°08'0 0.0
2015-Aug-20 05:33N 49°28' E 000°08'0 0.0
2015-Aug-20 04:33N 49°28' E 000°08'0 0.0
2015-Aug-20 03:33N 49°28' E 000°08'0 0.0
2015-Aug-20 02:33N 49°28' E 000°08'0 0.0
2015-Aug-20 01:33N 49°28' E 000°08'0 0.0
2015-Aug-20 00:33N 49°28' E 000°08'0 0.0
2015-Aug-19 23:33N 49°28' E 000°08'0 0.0
2015-Aug-19 22:33N 49°28' E 000°08'0 0.0
2015-Aug-19 21:33N 49°28' E 000°08'0 0.0
2015-Aug-19 20:33N 49°28' E 000°08'  
Track history (hours):
 
Tides and Currents Weather Stations Pressure Air Temp Water Temp Dewpoint Dewpoint Depression Visibility Wind Speed Wind Dir Waves Ship Positions

MSC Fortunate

Last reported at 2015-Aug-29 20:30 UTC. Time now 2015-Aug-29 21:04 UTC.
Position N 32°49' E 035°01'.

Length 275 m; draft 12.4 m.

Type: Ship. MMSI: 356708000.

Date/timePositionNaut miles runAvg speedWind from/ knotsBaromVisibWave heightAir tempDewpointWater temp
2015-Aug-29 20:30N 32°49' E 035°01'0 0.0
2015-Aug-29 19:30N 32°49' E 035°01'0 0.5
2015-Aug-29 18:32N 32°49' E 035°01'7 3.6
2015-Aug-29 16:33N 32°53' E 034°54'8 7.5
2015-Aug-29 15:31N 32°54' E 034°45'1814.1
2015-Aug-29 14:14N 32°58' E 034°24'1114.8
2015-Aug-29 13:28N 33°00' E 034°10'1414.8
2015-Aug-29 12:32N 33°03' E 033°54'1414.4
2015-Aug-29 11:34N 33°06' E 033°38'1414.3
2015-Aug-29 10:34N 33°09' E 033°21'1714.2
2015-Aug-29 09:22N 33°12' E 033°01'1214.0
2015-Aug-29 08:33N 33°14' E 032°48'1414.0
2015-Aug-29 07:34N 33°17' E 032°32'1414.0
2015-Aug-29 06:34N 33°20' E 032°15'1714.3
2015-Aug-29 05:24N 33°23' E 031°56'1214.0
2015-Aug-29 04:32N 33°25' E 031°41'1414.3
2015-Aug-29 03:33N 33°28' E 031°25'1414.1
2015-Aug-29 02:33N 33°31' E 031°08'2814.1
2015-Aug-29 00:34N 33°36' E 030°35'1614.3
2015-Aug-28 23:28N 33°39' E 030°17'2914.2
2015-Aug-28 21:27N 33°45' E 029°43'1314.3
2015-Aug-28 20:34N 33°47' E 029°28'1614.3
2015-Aug-28 19:24N 33°50' E 029°09'1214.3
2015-Aug-28 18:33N 33°53' E 028°54'1514.7
2015-Aug-28 17:31N 33°55' E 028°36'1515.2
2015-Aug-28 16:32N 33°59' E 028°18'60714.4
2015-Aug-26 22:15N 36°09' E 016°14'1114.1
2015-Aug-26 21:30N 36°12' E 016°01'4714.0
2015-Aug-26 18:06N 36°23' E 015°04'914.0
2015-Aug-26 17:26N 36°24' E 014°52'1214.1
2015-Aug-26 16:33N 36°26' E 014°37'1414.1
2015-Aug-26 15:33N 36°30' E 014°20'1414.1
2015-Aug-26 14:33N 36°34' E 014°03'1414.3
2015-Aug-26 13:33N 36°37' E 013°46'1414.4
2015-Aug-26 12:34N 36°40' E 013°28'1514.7
2015-Aug-26 11:33N 36°44' E 013°11'1514.8
2015-Aug-26 10:33N 36°47' E 012°52'1515.3
2015-Aug-26 09:33N 36°51' E 012°34'1515.0
2015-Aug-26 08:33N 36°54' E 012°16'1511.3
2015-Aug-26 07:15N 37°00' E 011°59'2613.7
2015-Aug-26 05:19N 37°13' E 011°30'8414.5
2015-Aug-25 23:33N 37°31' E 009°47'1515.2
2015-Aug-25 22:33N 37°28' E 009°28'32714.7
2015-Aug-25 00:18N 36°55' E 002°39'1114.9
2015-Aug-24 23:33N 36°53' E 002°26'8014.9
2015-Aug-24 18:08N 36°36' E 000°48'915.3
2015-Aug-24 17:32N 36°34' E 000°36'50013.9
2015-Aug-23 05:33N 37°31' W 009°45'1513.8
2015-Aug-23 04:29N 37°45' W 009°49'1413.8
2015-Aug-23 03:28N 37°59' W 009°53'1314.2
2015-Aug-23 02:32N 38°12' W 009°57'1414.6
2015-Aug-23 01:33N 38°26' W 010°01'1514.9
2015-Aug-23 00:33N 38°40' W 010°05'1514.8
2015-Aug-22 23:33N 38°55' W 010°06'1515.1
2015-Aug-22 22:33N 39°10' W 010°06'1514.8
2015-Aug-22 21:33N 39°25' W 010°06'  
2015-Aug-20 13:29N 49°44' W 000°54'1314.4
2015-Aug-20 12:34N 49°39' W 000°35'1414.2
2015-Aug-20 11:34N 49°33' W 000°14'1312.6
2015-Aug-20 10:33N 49°29' E 000°04'3 3.1
2015-Aug-20 09:33N 49°28' E 000°08'0 0.0
2015-Aug-20 08:30N 49°28' E 000°08'0 0.0
2015-Aug-20 07:33N 49°28' E 000°08'0 0.0
2015-Aug-20 06:33N 49°28' E 000°08'0 0.0
2015-Aug-20 05:33N 49°28' E 000°08'0 0.0
2015-Aug-20 04:33N 49°28' E 000°08'0 0.0
2015-Aug-20 03:33N 49°28' E 000°08'0 0.0
2015-Aug-20 02:33N 49°28' E 000°08'0 0.0
2015-Aug-20 01:33N 49°28' E 000°08'0 0.0
2015-Aug-20 00:33N 49°28' E 000°08'0 0.0
2015-Aug-19 23:33N 49°28' E 000°08'0 0.0
2015-Aug-19 22:33N 49°28' E 000°08'0 0.0
2015-Aug-19 21:33N 49°28' E 000°08'0 0.0
2015-Aug-19 20:33N 49°28' E 000°08'  

Dump ship's entire track history